createdAt,value
2024-03-13T15:10:47.683Z,62.05
2024-03-13T15:13:52.642Z,63.09
2024-03-13T15:16:55.539Z,64.12
2024-03-13T15:19:58.485Z,63.61
2024-03-13T15:23:01.363Z,63.56
2024-03-13T15:26:04.440Z,64.08
2024-03-13T15:29:07.451Z,64.96
2024-03-13T15:32:10.485Z,64.75
2024-03-13T15:35:15.421Z,65.90
2024-03-13T15:38:19.381Z,66.09
2024-03-13T15:41:22.276Z,66.45
2024-03-13T15:44:27.599Z,65.36
2024-03-13T15:47:30.516Z,66.22
2024-03-13T15:50:36.705Z,66.82
2024-03-13T15:53:44.340Z,66.26
2024-03-13T15:56:48.257Z,67.41
2024-03-13T15:59:51.219Z,65.51
2024-03-13T16:03:01.873Z,66.26
2024-03-13T16:06:04.897Z,65.77
2024-03-13T16:09:11.667Z,67.88
2024-03-13T16:12:14.968Z,67.34
2024-03-13T16:15:18.128Z,68.59
2024-03-13T16:18:21.290Z,67.37
2024-03-13T16:21:26.303Z,67.12
2024-03-13T16:24:29.467Z,68.09
2024-03-13T16:27:32.613Z,67.42
2024-03-13T16:30:35.503Z,67.31
2024-03-13T16:33:38.432Z,66.92
2024-03-13T16:36:41.819Z,67.21
2024-03-13T16:39:44.660Z,69.21
2024-03-13T16:42:48.050Z,68.25
2024-03-13T16:45:51.837Z,70.47
2024-03-13T16:48:55.899Z,68.90
2024-03-13T16:51:58.903Z,70.84
2024-03-13T16:55:02.036Z,70.72
2024-03-13T16:58:06.587Z,72.42
2024-03-13T17:01:09.637Z,70.42
2024-03-13T17:04:16.268Z,71.83
2024-03-13T17:07:19.825Z,72.69
2024-03-13T17:10:23.540Z,73.29
2024-03-13T17:13:27.156Z,73.79
2024-03-13T17:16:30.958Z,73.14
2024-03-13T17:19:33.865Z,73.84
